createdAt,value
2022-09-28T00:04:16.482Z,21.47
2022-09-28T00:09:18.399Z,21.48
2022-09-28T00:14:21.113Z,21.49
2022-09-28T00:19:23.070Z,21.53
2022-09-28T00:24:27.719Z,21.45
2022-09-28T00:29:32.629Z,21.51
2022-09-28T00:34:41.434Z,21.47
2022-09-28T00:39:44.236Z,21.47
2022-09-28T00:44:49.568Z,21.43
2022-09-28T00:50:01.535Z,21.46
2022-09-28T00:55:08.313Z,21.43
2022-09-28T01:00:11.337Z,21.45
2022-09-28T01:05:14.329Z,21.43
2022-09-28T01:10:16.219Z,21.46
2022-09-28T01:15:22.046Z,21.46
2022-09-28T01:20:35.178Z,21.45
2022-09-28T01:25:54.892Z,21.43
2022-09-28T01:31:00.591Z,21.44
2022-09-28T01:36:28.566Z,21.37
2022-09-28T01:41:33.690Z,21.42
2022-09-28T01:46:45.107Z,21.40
2022-09-28T01:51:51.341Z,21.42
2022-09-28T01:57:12.173Z,21.43
2022-09-28T02:02:22.170Z,21.43
2022-09-28T02:07:29.424Z,21.43
2022-09-28T02:12:41.534Z,21.38
2022-09-28T02:17:44.054Z,21.38
2022-09-28T02:22:57.168Z,21.40
2022-09-28T02:28:07.367Z,21.39
2022-09-28T02:33:35.122Z,21.40
2022-09-28T02:38:38.271Z,21.41
2022-09-28T02:44:13.915Z,21.39
2022-09-28T02:49:26.985Z,21.37
2022-09-28T02:55:03.053Z,21.41
2022-09-28T03:00:13.115Z,21.42
2022-09-28T03:05:21.237Z,21.39
2022-09-28T03:10:37.552Z,21.38
2022-09-28T03:15:39.458Z,21.35
2022-09-28T03:20:41.356Z,21.32
2022-09-28T03:25:43.054Z,21.41
2022-09-28T03:30:44.762Z,21.38
2022-09-28T03:35:50.811Z,21.37
2022-09-28T03:40:54.850Z,21.39
2022-09-28T03:46:01.229Z,21.41
2022-09-28T03:51:07.116Z,21.36
2022-09-28T03:56:12.558Z,21.34
2022-09-28T04:01:18.335Z,21.39
2022-09-28T04:06:20.486Z,21.33
2022-09-28T04:11:22.513Z,21.39
2022-09-28T04:16:24.353Z,21.38
2022-09-28T04:21:26.365Z,21.31
2022-09-28T04:26:28.664Z,21.39
2022-09-28T04:31:31.191Z,21.35
2022-09-28T04:36:33.154Z,21.34
2022-09-28T04:41:35.041Z,21.37
2022-09-28T04:46:37.033Z,21.36
2022-09-28T04:51:39.014Z,21.35
2022-09-28T04:56:41.643Z,21.37
2022-09-28T05:01:43.661Z,21.35
2022-09-28T05:06:45.765Z,21.35
2022-09-28T05:11:50.075Z,21.31
2022-09-28T05:16:52.023Z,21.37
2022-09-28T05:21:54.482Z,21.34
2022-09-28T05:26:56.399Z,21.33
2022-09-28T05:31:58.276Z,21.35
2022-09-28T05:37:00.148Z,21.34
2022-09-28T05:42:02.045Z,21.31
2022-09-28T05:47:04.027Z,21.35
2022-09-28T05:52:05.824Z,21.28
2022-09-28T05:57:07.576Z,21.25
2022-09-28T06:02:11.082Z,21.26
2022-09-28T06:07:13.113Z,21.28
2022-09-28T06:12:16.274Z,21.31
2022-09-28T06:17:18.057Z,21.30
2022-09-28T06:22:19.871Z,21.27
2022-09-28T06:27:21.642Z,21.27
2022-09-28T06:32:23.556Z,21.25
2022-09-28T06:37:26.438Z,21.23
2022-09-28T06:42:28.448Z,21.29
2022-09-28T06:47:31.475Z,21.24
2022-09-28T06:52:33.278Z,21.26
2022-09-28T06:57:35.255Z,21.27
2022-09-28T07:02:37.171Z,21.19
2022-09-28T07:07:39.011Z,21.26
2022-09-28T07:12:40.968Z,21.32
2022-09-28T07:17:56.285Z,21.32
2022-09-28T07:23:16.937Z,21.28
2022-09-28T07:28:21.523Z,21.29
2022-09-28T07:33:25.370Z,21.37
2022-09-28T07:38:27.414Z,21.22
2022-09-28T07:43:29.330Z,21.23
2022-09-28T07:48:37.006Z,21.08
2022-09-28T07:53:39.078Z,21.16
2022-09-28T07:58:41.595Z,21.28
2022-09-28T08:03:48.368Z,21.29
2022-09-28T08:08:50.505Z,21.35
2022-09-28T08:13:55.593Z,21.36
2022-09-28T08:18:57.731Z,21.41
2022-09-28T08:23:59.625Z,21.33
2022-09-28T08:29:01.710Z,21.40
2022-09-28T08:34:03.552Z,21.43
2022-09-28T08:39:05.603Z,21.45
2022-09-28T08:44:25.349Z,21.46
2022-09-28T08:49:37.282Z,21.49
2022-09-28T08:54:56.485Z,21.44
2022-09-28T09:00:00.666Z,21.48
2022-09-28T09:05:15.048Z,21.46
2022-09-28T09:10:28.889Z,21.45
2022-09-28T09:15:43.735Z,21.43
2022-09-28T09:20:59.471Z,21.52
2022-09-28T09:26:12.642Z,21.54
2022-09-28T09:32:03.319Z,21.54
2022-09-28T09:37:31.069Z,21.47
2022-09-28T09:42:50.841Z,21.46
2022-09-28T09:48:26.611Z,21.46
2022-09-28T09:53:39.006Z,21.59
2022-09-28T09:59:08.255Z,21.36
2022-09-28T10:04:25.188Z,21.47
2022-09-28T10:09:47.551Z,21.42
2022-09-28T10:14:50.290Z,21.44
2022-09-28T10:19:52.311Z,21.45
2022-09-28T10:24:57.796Z,21.49
2022-09-28T10:30:12.351Z,21.40
2022-09-28T10:35:17.133Z,21.48
2022-09-28T10:40:31.031Z,21.42
2022-09-28T10:45:37.271Z,21.52
2022-09-28T10:50:40.839Z,21.50
2022-09-28T10:55:55.505Z,21.50
2022-09-28T11:01:03.889Z,21.43
2022-09-28T11:06:09.160Z,21.44
2022-09-28T11:11:13.292Z,21.46
2022-09-28T11:16:33.778Z,21.45
2022-09-28T11:21:44.167Z,21.36
2022-09-28T11:26:49.943Z,21.45
2022-09-28T11:31:52.160Z,21.38
2022-09-28T11:37:08.001Z,21.41
2022-09-28T11:42:36.583Z,21.32
2022-09-28T11:47:48.382Z,21.40
2022-09-28T11:52:56.138Z,21.37
2022-09-28T11:58:06.062Z,21.37
2022-09-28T12:03:25.536Z,21.38
2022-09-28T12:08:35.428Z,21.37
2022-09-28T12:13:47.917Z,21.39
2022-09-28T12:19:08.548Z,21.35
2022-09-28T12:24:27.773Z,21.34
2022-09-28T12:29:37.209Z,21.31
2022-09-28T12:34:42.772Z,21.35
2022-09-28T12:40:08.692Z,21.34
2022-09-28T12:46:10.337Z,21.29
2022-09-28T12:51:33.772Z,21.32
2022-09-28T12:56:47.227Z,21.35
2022-09-28T13:01:54.881Z,21.34
2022-09-28T13:07:05.978Z,21.36
2022-09-28T13:12:44.702Z,21.31
2022-09-28T13:17:50.218Z,21.37
2022-09-28T13:23:02.479Z,21.37
2022-09-28T13:28:06.077Z,21.32
2022-09-28T13:33:14.204Z,21.35
2022-09-28T13:38:18.867Z,21.35
2022-09-28T13:43:33.295Z,21.37
2022-09-28T13:48:51.701Z,21.29
2022-09-28T13:53:53.635Z,21.35
2022-09-28T13:58:58.886Z,21.38
2022-09-28T14:04:15.983Z,21.30
2022-09-28T14:09:48.807Z,21.29
2022-09-28T14:14:52.016Z,21.35
2022-09-28T14:20:00.669Z,21.36
2022-09-28T14:25:23.771Z,21.30
2022-09-28T14:30:46.358Z,21.36
2022-09-28T14:35:56.999Z,21.33
2022-09-28T14:41:25.348Z,21.36
2022-09-28T14:46:33.361Z,21.37
2022-09-28T14:51:35.593Z,21.37
2022-09-28T14:56:45.113Z,21.34
2022-09-28T15:02:10.911Z,21.32
2022-09-28T15:07:23.018Z,21.24
2022-09-28T15:12:26.507Z,21.24
2022-09-28T15:17:41.718Z,21.20
2022-09-28T15:22:48.421Z,21.27
2022-09-28T15:27:56.706Z,21.26
2022-09-28T15:33:18.934Z,21.26
2022-09-28T15:38:21.086Z,21.32
2022-09-28T15:43:33.087Z,21.15
2022-09-28T15:48:52.466Z,21.17
2022-09-28T15:54:17.827Z,21.22
2022-09-28T15:59:30.917Z,21.27
2022-09-28T16:04:37.552Z,21.19
2022-09-28T16:10:13.936Z,21.14
2022-09-28T16:15:25.439Z,21.10
2022-09-28T16:20:32.237Z,20.87
2022-09-28T16:25:37.627Z,21.22
2022-09-28T16:31:00.876Z,21.32
2022-09-28T16:36:03.652Z,21.38
2022-09-28T16:41:06.147Z,21.34
2022-09-28T16:46:13.671Z,21.35
2022-09-28T16:51:19.969Z,21.33
2022-09-28T16:56:21.961Z,21.32
2022-09-28T17:01:24.982Z,21.29
2022-09-28T17:06:27.533Z,21.36
2022-09-28T17:11:29.718Z,21.32
2022-09-28T17:16:57.679Z,21.30
2022-09-28T17:21:55.148Z,21.24
2022-09-28T17:26:57.237Z,21.27
2022-09-28T17:31:59.164Z,21.21
2022-09-28T17:37:00.888Z,21.29
2022-09-28T17:42:02.773Z,21.28
2022-09-28T17:47:04.536Z,21.25
2022-09-28T17:52:06.325Z,21.32
2022-09-28T17:57:10.061Z,21.24
2022-09-28T18:02:12.307Z,21.28
2022-09-28T18:07:14.123Z,21.24
2022-09-28T18:12:15.766Z,21.27
2022-09-28T18:17:17.638Z,21.30
2022-09-28T18:22:19.507Z,21.27
2022-09-28T18:27:21.530Z,21.28
2022-09-28T18:32:23.741Z,21.28
2022-09-28T18:37:25.654Z,21.15
2022-09-28T18:42:27.513Z,21.18
2022-09-28T18:47:29.536Z,21.24
2022-09-28T18:52:31.449Z,21.26
2022-09-28T18:57:33.913Z,21.24
2022-09-28T19:02:36.754Z,21.24
2022-09-28T19:07:38.674Z,21.21
2022-09-28T19:12:40.849Z,21.27
2022-09-28T19:17:42.748Z,21.22
2022-09-28T19:22:45.284Z,21.23
2022-09-28T19:27:48.288Z,21.21
2022-09-28T19:32:50.281Z,21.24
2022-09-28T19:37:52.536Z,21.22
2022-09-28T19:42:54.611Z,21.24
2022-09-28T19:47:59.564Z,21.18
2022-09-28T19:53:02.084Z,21.20
2022-09-28T19:58:04.201Z,21.23
2022-09-28T20:03:06.204Z,21.19
2022-09-28T20:08:09.655Z,21.24
2022-09-28T20:13:11.451Z,21.16
2022-09-28T20:18:13.616Z,21.14
2022-09-28T20:23:16.683Z,21.19
2022-09-28T20:28:19.233Z,21.15
2022-09-28T20:33:28.626Z,21.16
2022-09-28T20:38:31.539Z,21.14
2022-09-28T20:43:35.089Z,21.16
2022-09-28T20:48:37.528Z,21.03
2022-09-28T20:53:41.675Z,21.15
2022-09-28T20:58:43.687Z,21.14
2022-09-28T21:03:51.693Z,21.18
2022-09-28T21:08:54.754Z,21.16
2022-09-28T21:13:59.134Z,21.16
2022-09-28T21:19:00.987Z,21.18
2022-09-28T21:24:02.756Z,21.18
2022-09-28T21:29:13.313Z,21.17
2022-09-28T21:34:20.211Z,21.20
2022-09-28T21:39:22.383Z,21.15
2022-09-28T21:44:24.234Z,21.18
2022-09-28T21:49:25.894Z,21.18
2022-09-28T21:54:29.151Z,21.22
2022-09-28T21:59:31.101Z,21.21
2022-09-28T22:04:32.903Z,21.16
2022-09-28T22:09:34.818Z,21.18
2022-09-28T22:14:36.587Z,21.19
2022-09-28T22:19:38.428Z,21.18
2022-09-28T22:24:40.379Z,21.19
2022-09-28T22:29:42.935Z,21.19
2022-09-28T22:34:44.757Z,21.19
2022-09-28T22:39:46.670Z,21.15
2022-09-28T22:44:49.088Z,21.17
2022-09-28T22:49:51.158Z,21.11
2022-09-28T22:54:54.197Z,21.18
2022-09-28T22:59:56.051Z,21.17
2022-09-28T23:04:57.834Z,21.18
2022-09-28T23:10:00.867Z,21.14
2022-09-28T23:15:02.622Z,21.16
2022-09-28T23:20:04.763Z,21.16
2022-09-28T23:25:07.262Z,21.13
2022-09-28T23:30:10.244Z,21.10
2022-09-28T23:35:13.147Z,21.15
2022-09-28T23:40:15.096Z,21.16
2022-09-28T23:45:17.028Z,21.12
2022-09-28T23:50:18.794Z,21.10
2022-09-28T23:55:20.894Z,21.13
